Time;durP1;ratioP1;P1;durP2;ratioP2;P2;SDS_P1;SDS_P2;PMS_P1;PMS_P2;Temp;Humidity;BMP_temperature;BMP_pressure;BME280_temperature;BME280_humidity;BME280_pressure;Samples;Min_cycle;Max_cycle;Signal;HPM_P1;HPM_P2
2023/03/15 00:02:06;;;;;;;6.88;1.55;;;;;;;19.76;32.70;101168.50;16119167;19;131397;-50
2023/03/15 00:07:28;;;;;;;5.13;1.38;;;;;;;19.72;32.70;101153.44;16120176;19;130709;-45
2023/03/15 00:12:50;;;;;;;8.60;1.60;;;;;;;19.65;32.72;101159.97;16118891;19;130637;-45
2023/03/15 00:18:12;;;;;;;4.22;1.30;;;;;;;19.60;32.70;101173.75;16121759;19;134157;-48
2023/03/15 00:23:34;;;;;;;7.78;1.33;;;;;;;19.55;32.48;101176.44;16118738;19;130639;-49
2023/03/15 00:28:56;;;;;;;9.32;1.73;;;;;;;19.51;32.70;101187.16;16117970;19;130006;-50
2023/03/15 00:34:22;;;;;;;3.17;1.20;;;;;;;19.48;32.69;101197.91;16116555;19;130658;-49
2023/03/15 00:39:45;;;;;;;3.40;1.10;;;;;;;19.45;32.82;101192.84;16123537;19;131202;-44
2023/03/15 00:45:09;;;;;;;8.93;1.77;;;;;;;19.41;32.54;101208.31;16122631;19;129628;-49
2023/03/15 00:50:31;;;;;;;3.35;1.30;;;;;;;19.37;32.69;101203.25;16116196;19;129714;-50
2023/03/15 00:55:52;;;;;;;3.78;1.20;;;;;;;19.33;32.48;101204.00;16119127;19;131217;-48
2023/03/15 01:01:23;;;;;;;7.82;1.48;;;;;;;19.31;32.88;101220.03;16118945;19;131097;-48
2023/03/15 01:06:45;;;;;;;5.47;1.40;;;;;;;19.28;32.49;101215.81;16117057;19;131407;-49
2023/03/15 01:12:07;;;;;;;7.53;1.38;;;;;;;19.24;32.78;101216.56;16112688;19;129517;-46
2023/03/15 01:17:29;;;;;;;5.82;1.50;;;;;;;19.19;32.92;101211.72;16116264;19;129403;-50
2023/03/15 01:22:51;;;;;;;2.75;1.13;;;;;;;19.16;32.86;101206.66;16118077;19;130677;-47
2023/03/15 01:28:12;;;;;;;3.88;1.20;;;;;;;19.13;32.80;101212.66;16116295;19;129925;-48
2023/03/15 01:33:34;;;;;;;3.20;1.13;;;;;;;19.10;32.62;101218.69;16112805;19;131059;-44
2023/03/15 01:38:56;;;;;;;3.80;1.40;;;;;;;19.07;32.96;101231.97;16121337;19;129235;-46
2023/03/15 01:44:19;;;;;;;3.50;1.30;;;;;;;19.04;33.20;101226.91;16112375;19;130010;-49
2023/03/15 01:49:45;;;;;;;3.53;1.05;;;;;;;19.01;32.65;101235.72;16115731;19;129848;-48
2023/03/15 01:55:11;;;;;;;3.00;1.20;;;;;;;18.99;32.86;101228.72;16114017;19;131358;-47
2023/03/15 02:00:33;;;;;;;2.97;1.10;;;;;;;18.96;32.94;101235.56;16112604;19;131023;-44
2023/03/15 02:06:04;;;;;;;3.85;0.95;;;;;;;18.94;32.99;101248.00;16103130;19;133984;-49
2023/03/15 02:11:26;;;;;;;2.13;0.98;;;;;;;18.90;33.22;101258.72;16111249;19;130621;-48
2023/03/15 02:16:48;;;;;;;3.25;0.98;;;;;;;18.87;32.81;101265.59;16113049;19;130454;-50
2023/03/15 02:22:41;;;;;;;2.53;0.85;;;;;;;18.86;33.11;101263.06;16116376;19;129593;-46
2023/03/15 02:28:05;;;;;;;3.13;0.93;;;;;;;18.81;33.14;101265.72;16108464;19;130557;-51
2023/03/15 02:33:48;;;;;;;2.70;0.80;;;;;;;18.79;33.14;101262.34;16109177;19;131834;-49
2023/03/15 02:39:18;;;;;;;2.75;1.08;;;;;;;18.76;33.21;101256.19;16105970;19;130556;-50
2023/03/15 02:44:42;;;;;;;1.83;0.95;;;;;;;18.77;33.13;101255.09;16099584;19;130735;-46
2023/03/15 02:50:06;;;;;;;4.47;1.15;;;;;;;18.81;33.24;101258.25;16108556;19;130728;-48
2023/03/15 02:55:31;;;;;;;2.78;1.10;;;;;;;18.80;33.20;101267.63;16121260;19;129653;-51
2023/03/15 03:00:53;;;;;;;2.50;1.10;;;;;;;18.80;33.35;101275.13;16128670;19;129954;-49
2023/03/15 03:06:16;;;;;;;3.53;1.00;;;;;;;18.78;33.05;101280.88;16128914;19;130922;-46
2023/03/15 03:11:38;;;;;;;2.40;0.80;;;;;;;18.74;33.41;101297.16;16122913;19;129964;-47
2023/03/15 03:17:00;;;;;;;4.75;0.95;;;;;;;18.71;32.97;101305.94;16120552;19;131800;-49
2023/03/15 03:22:23;;;;;;;4.82;1.10;;;;;;;18.70;33.39;101307.03;16122263;19;130085;-47
2023/03/15 03:27:45;;;;;;;3.70;1.00;;;;;;;18.68;33.01;101311.13;16121324;19;130350;-53
2023/03/15 03:33:07;;;;;;;2.60;0.80;;;;;;;18.65;33.26;101323.53;16128535;19;130923;-45
2023/03/15 03:38:29;;;;;;;2.95;0.98;;;;;;;18.63;33.36;101324.84;16126087;19;130437;-50
2023/03/15 03:43:50;;;;;;;2.83;0.88;;;;;;;18.58;33.05;101334.72;16121611;19;130185;-50
2023/03/15 03:49:13;;;;;;;4.25;0.80;;;;;;;18.57;33.50;101338.56;16123367;19;131658;-51
2023/03/15 03:54:35;;;;;;;2.45;1.00;;;;;;;18.55;33.14;101384.22;16120389;19;132408;-46
2023/03/15 03:59:57;;;;;;;1.50;1.02;;;;;;;18.52;32.96;101382.78;16121428;19;135943;-46
2023/03/15 04:05:20;;;;;;;3.42;1.30;;;;;;;18.49;33.02;101393.44;16119763;19;129998;-44
2023/03/15 04:10:41;;;;;;;3.25;1.30;;;;;;;18.45;32.88;101399.47;16119231;19;129853;-49
2023/03/15 04:16:05;;;;;;;2.45;1.00;;;;;;;18.43;32.88;101398.00;16120283;19;131113;-47
2023/03/15 04:21:30;;;;;;;2.63;1.38;;;;;;;18.41;32.91;101394.63;16122212;19;130128;-50
2023/03/15 04:26:56;;;;;;;3.93;0.90;;;;;;;18.38;32.97;101406.16;16119330;19;131784;-46
2023/03/15 04:32:18;;;;;;;3.17;1.17;;;;;;;18.36;33.17;101411.06;16121691;19;129853;-49
2023/03/15 04:37:41;;;;;;;1.55;0.77;;;;;;;18.34;32.90;101408.53;16115358;19;131413;-48
2023/03/15 04:43:04;;;;;;;1.27;0.80;;;;;;;18.33;33.24;101417.94;16113650;19;130117;-48
2023/03/15 04:48:26;;;;;;;2.22;0.90;;;;;;;18.31;33.07;101411.78;16115606;19;130598;-50
2023/03/15 04:53:49;;;;;;;3.45;0.93;;;;;;;18.30;33.17;101415.63;16119011;19;130042;-47
2023/03/15 04:59:11;;;;;;;1.20;0.65;;;;;;;18.27;33.08;101421.63;16119069;19;131116;-50
2023/03/15 05:04:32;;;;;;;1.33;0.70;;;;;;;18.25;32.94;101419.09;16115895;19;129879;-52
2023/03/15 05:09:54;;;;;;;1.20;0.60;;;;;;;18.22;33.13;101419.53;16118379;19;130683;-48
2023/03/15 05:15:17;;;;;;;1.38;0.75;;;;;;;18.22;33.22;101429.75;16113494;19;129647;-50
2023/03/15 05:20:39;;;;;;;1.85;0.90;;;;;;;18.20;33.38;101438.31;16115999;19;129944;-49
2023/03/15 05:26:02;;;;;;;1.85;0.77;;;;;;;18.20;33.02;101454.09;16113260;19;131595;-52
2023/03/15 05:31:24;;;;;;;1.50;0.70;;;;;;;18.19;33.45;101452.41;16111751;19;130050;-51
2023/03/15 05:36:46;;;;;;;2.30;1.10;;;;;;;18.17;33.49;101469.22;16117542;19;130568;-48
2023/03/15 05:42:07;;;;;;;1.65;0.60;;;;;;;18.15;33.05;101474.19;16118520;19;131163;-48
2023/03/15 05:47:29;;;;;;;2.35;0.85;;;;;;;18.13;33.32;101477.16;16114333;19;131654;-51
2023/03/15 05:52:54;;;;;;;1.40;0.60;;;;;;;18.12;33.32;101478.22;16114081;19;131624;-48
2023/03/15 05:58:16;;;;;;;1.17;0.63;;;;;;;18.10;33.12;101490.63;16113080;19;132009;-53
2023/03/15 06:03:38;;;;;;;1.40;0.60;;;;;;;18.09;33.21;101492.53;16116530;19;130060;-47
2023/03/15 06:09:00;;;;;;;0.60;0.50;;;;;;;18.21;33.53;101511.19;16111868;19;129477;-46
2023/03/15 06:14:22;;;;;;;1.17;0.57;;;;;;;18.69;33.13;101520.66;16114993;19;130073;-48
2023/03/15 06:19:44;;;;;;;1.60;0.77;;;;;;;19.33;32.05;101518.31;16113790;19;129764;-49
2023/03/15 06:25:06;;;;;;;2.17;0.70;;;;;;;19.92;31.75;101525.06;16109418;19;130254;-46
2023/03/15 06:30:28;;;;;;;0.70;0.50;;;;;;;20.28;31.08;101535.13;16111733;19;129476;-49
2023/03/15 06:35:50;;;;;;;1.33;0.50;;;;;;;20.44;30.94;101554.91;16103631;19;130273;-50
2023/03/15 06:41:14;;;;;;;3.55;0.60;;;;;;;20.48;31.00;101556.13;16112161;19;132319;-48
2023/03/15 06:46:36;;;;;;;5.53;0.90;;;;;;;20.48;30.94;101563.63;16115745;19;130864;-46
2023/03/15 06:51:58;;;;;;;2.05;0.50;;;;;;;20.42;30.76;101568.22;16113043;19;130039;-47
2023/03/15 06:57:20;;;;;;;3.90;0.57;;;;;;;20.34;30.72;101575.00;16107526;19;131860;-48
2023/03/15 07:02:41;;;;;;;4.50;0.60;;;;;;;20.27;31.19;101583.44;16110738;19;130618;-49
2023/03/15 07:08:03;;;;;;;5.28;0.90;;;;;;;20.23;30.84;101582.22;16113432;19;129330;-50
2023/03/15 07:13:25;;;;;;;0.85;0.50;;;;;;;20.18;31.33;101604.34;16112352;19;129637;-50
2023/03/15 07:18:47;;;;;;;1.70;0.65;;;;;;;20.13;31.41;101612.53;16112794;19;131303;-47
2023/03/15 07:24:09;;;;;;;2.92;0.73;;;;;;;20.09;31.12;101616.88;16114245;19;129268;-52
2023/03/15 07:29:31;;;;;;;4.70;0.65;;;;;;;20.06;31.38;101625.72;16118248;19;130876;-48
2023/03/15 07:34:57;;;;;;;5.13;0.60;;;;;;;20.04;31.64;101638.97;16118463;19;129539;-48
2023/03/15 07:40:18;;;;;;;;;;;;;;;19.98;31.42;101640.75;16123336;19;131887;-48
2023/03/15 07:45:41;;;;;;;1.35;0.80;;;;;;;19.99;31.46;101650.78;16126412;19;129808;-47
2023/03/15 07:51:03;;;;;;;5.72;0.85;;;;;;;19.97;32.09;101662.09;16126277;19;130073;-48
2023/03/15 07:56:25;;;;;;;4.97;1.20;;;;;;;19.96;31.57;101665.13;16125009;19;129571;-51
2023/03/15 08:01:46;;;;;;;6.45;1.02;;;;;;;20.03;31.96;101681.72;16122874;19;129708;-50
2023/03/15 08:07:08;;;;;;;14.68;1.00;;;;;;;20.47;31.21;101687.84;16123982;19;130881;-50
2023/03/15 08:12:32;;;;;;;6.35;0.95;;;;;;;22.21;29.54;101694.59;16124250;19;129399;-50
2023/03/15 08:17:54;;;;;;;6.40;0.70;;;;;;;24.96;26.35;101695.88;16124549;19;129753;-53
2023/03/15 08:23:15;;;;;;;4.18;0.68;;;;;;;27.27;23.43;101700.03;16123908;19;129163;-48
2023/03/15 08:28:37;;;;;;;4.85;0.80;;;;;;;28.53;22.28;101710.22;16127253;19;131369;-48
2023/03/15 08:33:59;;;;;;;7.97;0.90;;;;;;;28.74;21.63;101712.88;16124825;19;129702;-51
2023/03/15 08:39:22;;;;;;;4.13;0.75;;;;;;;27.11;22.93;101723.69;16123176;19;129778;-52
2023/03/15 08:44:44;;;;;;;5.78;0.90;;;;;;;25.42;24.38;101726.88;16122507;19;131784;-53
2023/03/15 08:50:12;;;;;;;2.75;0.70;;;;;;;24.21;25.54;101728.25;16116206;19;131211;-54
2023/03/15 08:55:33;;;;;;;2.42;0.63;;;;;;;23.38;26.55;101734.84;16122467;19;129959;-52
2023/03/15 09:00:56;;;;;;;4.45;0.60;;;;;;;22.82;27.05;101743.25;16123675;19;129605;-53
2023/03/15 09:06:18;;;;;;;3.90;0.70;;;;;;;22.33;27.62;101746.63;16120654;19;130841;-54
2023/03/15 09:11:39;;;;;;;2.38;0.95;;;;;;;21.94;28.10;101758.41;16122522;19;129649;-53
2023/03/15 09:17:02;;;;;;;4.55;0.90;;;;;;;21.61;28.56;101755.25;16122594;19;129447;-53
2023/03/15 09:22:23;;;;;;;1.65;0.60;;;;;;;21.34;28.85;101750.25;16119862;19;130244;-51
2023/03/15 09:28:04;;;;;;;4.65;0.88;;;;;;;21.12;28.91;101749.16;16115894;19;130035;-53
2023/03/15 09:33:26;;;;;;;3.33;0.80;;;;;;;20.92;29.26;101749.56;16118512;19;129429;-54
2023/03/15 09:38:47;;;;;;;3.33;0.70;;;;;;;20.76;29.38;101751.97;16122092;19;130463;-53
2023/03/15 09:44:16;;;;;;;4.65;0.85;;;;;;;20.65;29.93;101755.53;16122198;19;129681;-53
2023/03/15 09:49:53;;;;;;;5.28;0.65;;;;;;;20.53;29.91;101767.50;16118466;19;129383;-52
2023/03/15 09:55:24;;;;;;;2.75;0.60;;;;;;;20.43;30.06;101764.47;16114279;19;129844;-52
2023/03/15 10:00:56;;;;;;;2.80;0.60;;;;;;;20.35;30.72;101764.78;16115309;19;130033;-54
2023/03/15 10:06:19;;;;;;;4.47;0.65;;;;;;;20.26;30.43;101767.06;16116267;19;130798;-53
2023/03/15 10:11:53;;;;;;;6.18;1.05;;;;;;;20.19;30.57;101757.97;16122967;19;129519;-54
2023/03/15 10:17:23;;;;;;;3.75;1.00;;;;;;;20.12;30.95;101755.28;16117679;19;130653;-53
2023/03/15 10:23:01;;;;;;;7.60;1.58;;;;;;;20.02;30.78;101768.91;16114850;19;129130;-51
2023/03/15 10:28:28;;;;;;;4.88;1.20;;;;;;;19.87;30.52;101778.47;16114843;19;128966;-55
2023/03/15 10:33:55;;;;;;;10.52;1.20;;;;;;;19.81;29.31;101787.75;16118254;19;132497;-55
2023/03/15 10:39:18;;;;;;;6.25;1.55;;;;;;;19.81;27.93;101790.53;16116861;19;129783;-52
2023/03/15 10:44:39;;;;;;;5.03;1.40;;;;;;;19.75;27.38;101791.44;16112300;19;130037;-49
2023/03/15 10:50:01;;;;;;;10.00;1.60;;;;;;;19.80;27.18;101799.94;16114458;19;131719;-52
2023/03/15 10:55:41;;;;;;;3.58;1.30;;;;;;;19.82;26.80;101808.84;16109973;19;129321;-54
2023/03/15 11:01:06;;;;;;;5.65;1.33;;;;;;;19.79;27.07;101804.63;16119004;19;131245;-50
2023/03/15 11:06:28;;;;;;;3.40;1.20;;;;;;;19.74;27.70;101809.19;16113960;19;132121;-50
2023/03/15 11:11:52;;;;;;;6.25;1.25;;;;;;;19.71;27.42;101820.75;16114088;19;129221;-51
2023/03/15 11:17:19;;;;;;;5.80;1.33;;;;;;;19.62;28.13;101834.94;16126347;19;130707;-49
2023/03/15 11:22:41;;;;;;;8.15;1.60;;;;;;;19.53;28.52;101839.13;16129222;19;129750;-49
2023/03/15 11:28:03;;;;;;;9.63;1.80;;;;;;;19.46;28.35;101838.31;16129056;19;129699;-50
2023/03/15 11:33:44;;;;;;;3.33;1.13;;;;;;;19.41;28.21;101829.84;16127962;19;130281;-51
2023/03/15 11:39:12;;;;;;;9.38;1.83;;;;;;;19.31;28.45;101827.59;16129157;19;130588;-53
2023/03/15 11:44:54;;;;;;;4.82;1.25;;;;;;;19.23;28.35;101837.06;16128119;19;130450;-50
2023/03/15 11:50:16;;;;;;;4.40;0.90;;;;;;;19.12;28.60;101829.44;16122756;19;131331;-49
2023/03/15 11:55:37;;;;;;;6.95;1.10;;;;;;;19.07;28.64;101819.03;16125276;19;131151;-51
2023/03/15 12:01:02;;;;;;;5.93;1.02;;;;;;;19.06;28.89;101809.03;16127853;19;129708;-51
2023/03/15 12:06:36;;;;;;;3.43;1.00;;;;;;;19.07;28.83;101802.41;16125307;19;129722;-49
2023/03/15 12:12:17;;;;;;;4.20;1.10;;;;;;;19.06;28.85;101812.66;16128109;19;129333;-46
2023/03/15 12:17:49;;;;;;;3.72;0.88;;;;;;;19.08;29.07;101816.03;16124457;19;129553;-49
2023/03/15 12:23:11;;;;;;;4.63;1.10;;;;;;;19.06;29.12;101801.56;16126889;19;129454;-52
2023/03/15 12:29:02;;;;;;;3.85;0.88;;;;;;;19.06;29.61;101807.13;16124267;19;130703;-49
2023/03/15 12:34:30;;;;;;;5.57;0.80;;;;;;;19.05;29.52;101799.88;16122411;19;132754;-48
2023/03/15 12:40:01;;;;;;;7.45;0.95;;;;;;;19.04;29.43;101798.16;16125468;19;133149;-48
2023/03/15 12:45:26;;;;;;;4.82;0.98;;;;;;;19.03;29.85;101790.06;16120650;19;129474;-49
2023/03/15 12:50:56;;;;;;;2.72;1.00;;;;;;;19.01;30.13;101798.63;16124103;19;129864;-53
2023/03/15 12:56:41;;;;;;;4.35;1.02;;;;;;;19.01;29.99;101793.06;16125490;19;129622;-51
2023/03/15 13:02:23;;;;;;;2.42;0.80;;;;;;;18.99;29.84;101791.63;16123367;19;130686;-49
2023/03/15 13:08:22;;;;;;;1.50;0.70;;;;;;;18.99;30.08;101795.22;16114962;19;130990;-51
2023/03/15 13:14:22;;;;;;;2.47;0.90;;;;;;;18.97;30.00;101790.97;16119757;19;130784;-54
2023/03/15 13:19:49;;;;;;;1.17;0.50;;;;;;;18.93;30.11;101785.06;16122531;19;129797;-53
2023/03/15 13:25:21;;;;;;;4.13;1.10;;;;;;;19.05;30.06;101780.47;16121885;19;129391;-55
2023/03/15 13:30:48;;;;;;;2.03;0.73;;;;;;;19.47;29.99;101784.50;16121637;19;129444;-52
2023/03/15 13:36:15;;;;;;;2.03;0.70;;;;;;;20.04;29.25;101784.25;16118481;19;129474;-52
2023/03/15 13:41:37;;;;;;;3.92;0.60;;;;;;;20.50;29.23;101798.53;16121274;19;134321;-52
2023/03/15 13:46:59;;;;;;;2.78;0.57;;;;;;;20.79;28.68;101778.44;16119568;19;129610;-49
2023/03/15 13:52:21;;;;;;;1.35;0.57;;;;;;;20.89;28.39;101779.53;16122565;19;129664;-51
2023/03/15 13:57:43;;;;;;;1.48;0.60;;;;;;;20.89;28.90;101787.88;16120750;19;129270;-48
2023/03/15 14:03:12;;;;;;;2.67;0.40;;;;;;;20.81;28.82;101785.44;16118945;19;131827;-47
2023/03/15 14:08:38;;;;;;;1.10;0.40;;;;;;;20.70;28.84;101789.03;16119254;19;130515;-47
2023/03/15 14:14:03;;;;;;;0.50;0.38;;;;;;;20.56;29.03;101797.56;16118433;19;129720;-49
2023/03/15 14:19:31;;;;;;;1.73;0.63;;;;;;;20.45;29.01;101801.19;16116449;19;129368;-49
2023/03/15 14:24:53;;;;;;;4.07;0.60;;;;;;;20.33;29.30;101803.94;16115522;19;129842;-53
2023/03/15 14:30:24;;;;;;;1.45;0.57;;;;;;;20.21;29.25;101803.06;16119647;19;129749;-54
2023/03/15 14:35:46;;;;;;;0.60;0.40;;;;;;;20.11;29.82;101795.28;16114848;19;129090;-50
2023/03/15 14:41:37;;;;;;;1.38;0.50;;;;;;;20.02;29.77;101805.03;16118890;19;131688;-53
2023/03/15 14:46:59;;;;;;;1.00;0.43;;;;;;;19.90;30.07;101789.13;16114611;19;131144;-55
2023/03/15 14:52:24;;;;;;;2.20;0.50;;;;;;;19.86;29.77;101792.59;16116489;19;130969;-52
2023/03/15 14:57:46;;;;;;;3.05;0.60;;;;;;;19.89;29.99;101786.56;16116886;19;129725;-51
2023/03/15 15:03:24;;;;;;;2.38;0.60;;;;;;;20.02;29.70;101780.03;16114275;19;130828;-54
2023/03/15 15:08:48;;;;;;;0.57;0.35;;;;;;;20.12;29.81;101774.75;16112998;19;130496;-48
2023/03/15 15:14:13;;;;;;;1.58;0.70;;;;;;;20.21;29.67;101773.31;16119394;19;129660;-53
2023/03/15 15:19:35;;;;;;;;;;;;;;;20.29;29.46;101761.03;16115732;19;130940;-53
2023/03/15 15:24:57;;;;;;;1.45;0.43;;;;;;;20.58;29.24;101756.50;16114310;19;129703;-51
2023/03/15 15:30:22;;;;;;;2.80;0.47;;;;;;;20.95;29.10;101749.03;16114022;19;130349;-53
2023/03/15 15:35:43;;;;;;;1.40;0.60;;;;;;;21.25;28.24;101748.06;16111863;19;129987;-51
2023/03/15 15:41:12;;;;;;;1.38;0.40;;;;;;;21.50;28.38;101743.09;16111219;19;129505;-52
2023/03/15 15:46:34;;;;;;;0.88;0.30;;;;;;;21.67;27.88;101734.78;16114172;19;129555;-51
2023/03/15 15:51:56;;;;;;;0.98;0.40;;;;;;;21.80;27.60;101741.16;16114797;19;128881;-54
2023/03/15 15:57:21;;;;;;;4.38;0.85;;;;;;;21.81;27.76;101729.75;16111401;19;130253;-52
2023/03/15 16:02:42;;;;;;;1.83;0.60;;;;;;;21.76;27.70;101731.59;16122828;19;129486;-50
2023/03/15 16:08:04;;;;;;;2.95;0.60;;;;;;;21.64;27.81;101731.66;16128338;19;129335;-51
2023/03/15 16:13:26;;;;;;;2.83;0.38;;;;;;;21.51;27.96;101725.28;16123729;19;130542;-48
2023/03/15 16:18:48;;;;;;;3.15;0.60;;;;;;;21.34;28.16;101730.75;16128707;19;130954;-53
2023/03/15 16:24:12;;;;;;;1.30;0.40;;;;;;;21.18;28.79;101726.75;16127546;19;129544;-52
2023/03/15 16:29:37;;;;;;;10.68;0.98;;;;;;;21.05;29.10;101730.66;16122345;19;129991;-48
2023/03/15 16:34:59;;;;;;;2.50;0.60;;;;;;;20.89;29.52;101726.69;16123656;19;129738;-52
2023/03/15 16:40:26;;;;;;;2.92;0.70;;;;;;;20.79;29.62;101729.25;16123466;19;129682;-52
2023/03/15 16:45:48;;;;;;;3.72;0.77;;;;;;;20.67;30.40;101731.97;16122918;19;129603;-53
2023/03/15 16:51:13;;;;;;;2.83;0.57;;;;;;;20.56;31.01;101725.31;16120868;19;130239;-50
2023/03/15 16:56:35;;;;;;;6.10;0.60;;;;;;;20.47;31.04;101735.09;16118104;19;130290;-52
2023/03/15 17:01:57;;;;;;;1.48;0.47;;;;;;;20.39;31.37;101741.00;16122392;19;130769;-52
2023/03/15 17:07:35;;;;;;;4.07;0.77;;;;;;;20.33;31.72;101741.94;16122065;19;130438;-52
2023/03/15 17:12:59;;;;;;;3.17;0.75;;;;;;;20.21;32.10;101753.03;16117436;19;130341;-53
2023/03/15 17:18:22;;;;;;;5.07;0.50;;;;;;;20.11;32.73;101745.25;16114813;19;131424;-49
2023/03/15 17:23:46;;;;;;;5.03;0.57;;;;;;;20.01;33.29;101753.31;16112948;19;129825;-52
2023/03/15 17:29:09;;;;;;;1.25;0.52;;;;;;;19.99;34.31;101756.31;16119028;19;130139;-50
2023/03/15 17:34:32;;;;;;;2.88;0.63;;;;;;;20.06;34.77;101754.31;16119934;19;130725;-52
2023/03/15 17:39:55;;;;;;;4.88;0.80;;;;;;;20.15;34.82;101749.28;16123113;19;130100;-52
2023/03/15 17:45:24;;;;;;;2.22;0.50;;;;;;;20.19;35.18;101752.41;16116757;19;134559;-51
2023/03/15 17:50:45;;;;;;;4.43;0.63;;;;;;;20.17;35.14;101766.56;16117752;19;130492;-55
2023/03/15 17:56:08;;;;;;;3.38;0.60;;;;;;;20.12;35.33;101769.19;16116600;19;130910;-55
2023/03/15 18:01:30;;;;;;;1.23;0.50;;;;;;;20.07;35.33;101761.56;16117952;19;129609;-53
2023/03/15 18:06:54;;;;;;;3.72;0.70;;;;;;;20.02;35.36;101768.91;16118443;19;130477;-56
2023/03/15 18:12:16;;;;;;;2.88;1.00;;;;;;;19.94;35.47;101772.84;16116009;19;129473;-54
2023/03/15 18:17:39;;;;;;;5.57;0.80;;;;;;;19.86;35.72;101771.22;16109668;19;130738;-56
2023/03/15 18:23:02;;;;;;;4.80;0.82;;;;;;;19.79;35.92;101770.47;16105458;19;132023;-57
2023/03/15 18:28:25;;;;;;;5.25;0.93;;;;;;;19.74;36.20;101759.22;16115743;19;130026;-57
2023/03/15 18:33:48;;;;;;;6.30;0.85;;;;;;;19.73;36.65;101760.28;16117568;19;130168;-49
2023/03/15 18:39:10;;;;;;;8.07;1.00;;;;;;;19.70;37.20;101767.16;16118397;19;129721;-51
2023/03/15 18:44:32;;;;;;;3.58;0.80;;;;;;;19.94;36.67;101761.72;16112419;19;130821;-50
2023/03/15 18:49:54;;;;;;;7.50;1.10;;;;;;;20.37;36.46;101766.22;16114876;19;131927;-52
2023/03/15 18:55:30;;;;;;;5.60;0.93;;;;;;;20.69;36.36;101767.84;16118684;19;129305;-46
2023/03/15 19:00:52;;;;;;;3.53;0.93;;;;;;;20.82;36.26;101764.88;16118958;19;132568;-53
2023/03/15 19:06:14;;;;;;;3.28;1.02;;;;;;;20.90;36.14;101756.19;16112408;19;131269;-50
2023/03/15 19:11:40;;;;;;;3.42;1.10;;;;;;;21.06;35.98;101756.53;16116305;19;129717;-49
2023/03/15 19:17:02;;;;;;;8.13;1.15;;;;;;;21.32;35.47;101751.56;16112430;19;130225;-49
2023/03/15 19:22:27;;;;;;;3.40;0.90;;;;;;;21.66;35.62;101748.97;16113882;19;129379;-52
2023/03/15 19:27:49;;;;;;;3.70;0.75;;;;;;;21.89;35.10;101749.97;16114491;19;129573;-49
2023/03/15 19:33:11;;;;;;;3.17;0.95;;;;;;;22.02;35.05;101746.91;16113618;19;129822;-47
2023/03/15 19:38:33;;;;;;;4.78;1.00;;;;;;;22.02;35.07;101744.09;16124267;19;128949;-46
2023/03/15 19:43:55;;;;;;;6.55;1.33;;;;;;;21.93;35.44;101749.22;16126304;19;130038;-50
2023/03/15 19:49:18;;;;;;;5.30;1.10;;;;;;;21.79;35.76;101734.75;16129977;19;130698;-50
2023/03/15 19:54:39;;;;;;;3.33;1.02;;;;;;;21.66;35.79;101744.25;16126940;19;130094;-52
2023/03/15 20:00:02;;;;;;;6.07;1.20;;;;;;;21.54;35.93;101737.88;16123070;19;130367;-52
2023/03/15 20:05:24;;;;;;;8.00;1.35;;;;;;;21.42;36.38;101743.41;16121040;19;129801;-56
2023/03/15 20:10:47;;;;;;;6.35;1.08;;;;;;;21.30;37.32;101751.81;16124620;19;130712;-57
2023/03/15 20:16:09;;;;;;;7.38;1.17;;;;;;;21.19;37.68;101745.16;16129842;19;129616;-45
2023/03/15 20:21:32;;;;;;;3.13;1.20;;;;;;;21.12;37.47;101740.81;16130018;19;129968;-50
2023/03/15 20:26:54;;;;;;;6.38;1.10;;;;;;;21.03;38.01;101751.47;16130013;19;131828;-55
2023/03/15 20:32:16;;;;;;;17.13;1.60;;;;;;;20.94;37.91;101747.34;16127018;19;129619;-56
2023/03/15 20:37:39;;;;;;;5.32;1.20;;;;;;;20.85;38.20;101744.94;16124752;19;130425;-57
2023/03/15 20:43:01;;;;;;;9.70;2.08;;;;;;;20.78;38.43;101744.22;16128279;19;130646;-60
2023/03/15 20:48:24;;;;;;;12.07;1.88;;;;;;;20.74;38.52;101751.31;16122595;19;130019;-52
2023/03/15 20:53:45;;;;;;;13.93;2.05;;;;;;;20.69;38.80;101737.28;16120857;19;130615;-53
2023/03/15 20:59:07;;;;;;;7.47;1.90;;;;;;;20.63;38.93;101725.19;16121672;19;128989;-51
2023/03/15 21:04:32;;;;;;;9.80;1.30;;;;;;;20.59;38.94;101730.38;16120729;19;130777;-53
2023/03/15 21:09:54;;;;;;;11.43;1.73;;;;;;;20.55;39.09;101731.97;16123607;19;129661;-51
2023/03/15 21:15:17;;;;;;;11.40;1.85;;;;;;;20.55;39.04;101722.78;16119347;19;129611;-55
2023/03/15 21:20:40;;;;;;;12.38;1.63;;;;;;;20.54;39.02;101724.72;16121994;19;130303;-51
2023/03/15 21:26:05;;;;;;;13.75;1.83;;;;;;;20.51;39.64;101721.53;16120736;19;130750;-53
2023/03/15 21:31:27;;;;;;;;;;;;;;;20.44;39.72;101719.75;16118782;19;130864;-50
2023/03/15 21:36:50;;;;;;;14.32;1.45;;;;;;;20.43;39.09;101714.44;16124521;19;129726;-56
2023/03/15 21:42:12;;;;;;;10.35;1.70;;;;;;;20.39;39.21;101708.47;16120177;19;131397;-55
2023/03/15 21:47:35;;;;;;;9.45;1.52;;;;;;;20.36;39.41;101697.00;16123887;19;130616;-53
2023/03/15 21:52:57;;;;;;;11.80;1.70;;;;;;;20.32;39.23;101699.44;16105216;19;134539;-51
2023/03/15 21:58:20;;;;;;;5.45;2.05;;;;;;;20.27;39.53;101705.69;16106045;19;131020;-52
2023/03/15 22:03:43;;;;;;;15.23;1.73;;;;;;;20.23;39.33;101720.31;16114208;19;130089;-48
2023/03/15 22:09:04;;;;;;;23.85;2.53;;;;;;;20.23;39.38;101728.66;16111227;19;129585;-50
2023/03/15 22:14:26;;;;;;;19.55;1.88;;;;;;;20.20;39.51;101693.81;16115415;19;130523;-50
2023/03/15 22:19:48;;;;;;;13.88;2.70;;;;;;;20.18;39.80;101701.59;16112061;19;129138;-48
2023/03/15 22:25:10;;;;;;;8.68;1.42;;;;;;;20.13;39.40;101699.50;16114017;19;130317;-49
2023/03/15 22:30:32;;;;;;;9.45;1.58;;;;;;;20.07;39.92;101689.34;16112848;19;130047;-50
2023/03/15 22:35:56;;;;;;;16.73;1.88;;;;;;;20.03;39.60;101678.94;16111821;19;129643;-48
2023/03/15 22:41:18;;;;;;;14.15;1.80;;;;;;;19.96;39.84;101682.63;16110658;19;130753;-52
2023/03/15 22:46:40;;;;;;;17.20;2.05;;;;;;;19.90;39.32;101680.81;16107968;19;131699;-50
2023/03/15 22:52:02;;;;;;;16.38;2.08;;;;;;;19.83;39.33;101682.81;16110196;19;129963;-52
2023/03/15 22:57:24;;;;;;;8.30;1.88;;;;;;;19.76;39.76;101687.66;16112962;19;129832;-50
2023/03/15 23:02:46;;;;;;;13.48;1.88;;;;;;;19.68;39.51;101686.03;16112301;19;131388;-49
2023/03/15 23:08:08;;;;;;;9.77;2.10;;;;;;;19.63;39.21;101692.28;16109993;19;130358;-52
2023/03/15 23:13:30;;;;;;;11.40;2.22;;;;;;;19.56;39.70;101669.34;16128922;19;130283;-49
2023/03/15 23:18:52;;;;;;;5.43;1.45;;;;;;;19.52;39.35;101682.00;16122320;19;129567;-48
2023/03/15 23:24:16;;;;;;;6.47;1.73;;;;;;;19.48;39.39;101683.53;16123524;19;130343;-51
2023/03/15 23:29:37;;;;;;;9.98;1.30;;;;;;;19.42;39.47;101677.00;16122599;19;134555;-52
2023/03/15 23:35:15;;;;;;;5.75;1.95;;;;;;;19.38;39.50;101676.63;16124064;19;130075;-50
2023/03/15 23:40:36;;;;;;;8.48;1.50;;;;;;;19.33;39.65;101673.69;16121554;19;129676;-52
2023/03/15 23:46:02;;;;;;;6.07;1.25;;;;;;;19.29;39.44;101669.69;16120318;19;130425;-51
2023/03/15 23:51:24;;;;;;;6.93;1.40;;;;;;;19.25;39.37;101660.13;16120782;19;130554;-51
2023/03/15 23:56:46;;;;;;;4.30;1.38;;;;;;;19.22;39.52;101660.59;16119590;19;131554;-54
